This is the latest recevied weather packets stored in our database for station/object SQ9IWE-13. If no packets are shown the sender has not sent any weather packets the latest 1 day(s).
| Time | Temp. | Humidity | Pressure | Rain* | Wind** | Luminosity | Snow |
|---|---|---|---|---|---|---|---|
| 1778061601 | 25° C | 48% | 1006.8 hPa | - | - | - | - |
| 1778055001 | 24.44° C | 51% | 1006.5 hPa | - | - | - | - |
| 1778052601 | 22.22° C | 54% | 1006.2 hPa | - | - | - | - |
| 1778051401 | 21.11° C | 55% | 1006.2 hPa | - | - | - | - |
| 1778050201 | 19.44° C | 58% | 1006.3 hPa | - | - | - | - |
| 1778047801 | 20.56° C | 55% | 1006 hPa | - | - | - | - |
| 1778047201 | 21.11° C | 53% | 1006.1 hPa | - | - | - | - |
| 1778046601 | 20° C | 56% | 1006 hPa | - | - | - | - |
| 1778046001 | 20° C | 55% | 1005.9 hPa | - | - | - | - |
| 1778045401 | 20.56° C | 53% | 1005.9 hPa | - | - | - | - |
| 1778044801 | 20° C | 55% | 1005.8 hPa | - | - | - | - |
| 1778044201 | 20° C | 56% | 1005.9 hPa | - | - | - | - |
| 1778043602 | 18.33° C | 58% | 1005.9 hPa | - | - | - | - |
| 1778043001 | 19.44° C | 57% | 1005.8 hPa | - | - | - | - |
| 1778042401 | 18.89° C | 58% | 1005.7 hPa | - | - | - | - |
| 1778041801 | 16.67° C | 63% | 1005.7 hPa | - | - | - | - |
| 1778041201 | 17.78° C | 60% | 1005.8 hPa | - | - | - | - |
| 1778040601 | 16.67° C | 63% | 1005.6 hPa | - | - | - | - |
| 1778040001 | 14.44° C | 68% | 1005.6 hPa | - | - | - | - |
| 1778039401 | 15° C | 67% | 1005.6 hPa | - | - | - | - |
| 1778038801 | 15° C | 66% | 1005.6 hPa | - | - | - | - |
| 1778035200 | 15° C | 64% | 1005.7 hPa | - | - | - | - |
| 1778029801 | 15.56° C | 59% | 1005.5 hPa | - | - | - | - |
| 1778028601 | 15.56° C | 58% | 1005.6 hPa | - | - | - | - |
| 1778022601 | 16.11° C | 57% | 1006.1 hPa | - | - | - | - |
* Rain since midnight (hover to see other rain measurements)
** Current wind speed in m/s (hover to see current wind gust speed)